createdAt,value
2018-03-26T00:00:20.567Z,5.40
2018-03-26T00:02:49.586Z,5.40
2018-03-26T00:05:17.768Z,5.40
2018-03-26T00:07:45.993Z,5.30
2018-03-26T00:10:24.234Z,5.20
2018-03-26T00:12:52.484Z,5.20
2018-03-26T00:15:21.507Z,4.80
2018-03-26T00:20:50.263Z,5.30
2018-03-26T00:23:19.954Z,4.60
2018-03-26T00:25:48.914Z,4.60
2018-03-26T00:28:17.190Z,5.00
2018-03-26T00:30:45.368Z,4.80
2018-03-26T00:33:23.950Z,4.50
2018-03-26T00:35:52.148Z,4.50
2018-03-26T00:38:23.682Z,4.60
2018-03-26T00:40:52.650Z,4.70
2018-03-26T00:43:20.823Z,4.70
2018-03-26T00:45:48.999Z,4.80
2018-03-26T00:48:22.927Z,4.80
2018-03-26T00:50:51.877Z,4.70
2018-03-26T00:53:38.127Z,4.70
2018-03-26T00:56:07.076Z,5.20
2018-03-26T00:58:35.247Z,5.20
2018-03-26T01:01:03.490Z,4.90
2018-03-26T01:03:31.674Z,5.00
2018-03-26T01:06:23.581Z,4.90
2018-03-26T01:08:51.762Z,4.50
2018-03-26T01:11:19.950Z,4.80
2018-03-26T01:13:48.159Z,4.40
2018-03-26T01:16:22.949Z,5.00
2018-03-26T01:18:51.270Z,5.20
2018-03-26T01:21:25.694Z,5.00
2018-03-26T01:23:53.908Z,4.80
2018-03-26T01:26:22.153Z,4.80
2018-03-26T01:28:50.392Z,5.00
2018-03-26T01:31:18.607Z,5.20
2018-03-26T01:34:26.954Z,5.50
2018-03-26T01:36:55.248Z,5.50
2018-03-26T01:39:23.411Z,5.40
2018-03-26T01:41:51.606Z,5.40
2018-03-26T01:44:23.256Z,5.40
2018-03-26T01:46:51.541Z,5.50
2018-03-26T01:49:19.721Z,5.40
2018-03-26T01:51:48.785Z,5.40
2018-03-26T01:54:16.980Z,5.40
2018-03-26T01:56:45.163Z,5.60
2018-03-26T01:59:13.376Z,5.40
2018-03-26T02:01:41.551Z,5.20
2018-03-26T02:04:09.850Z,5.20
2018-03-26T02:06:38.068Z,5.40
2018-03-26T02:12:07.260Z,5.60
2018-03-26T02:14:37.059Z,5.40
2018-03-26T02:17:25.322Z,5.40
2018-03-26T02:19:53.490Z,5.40
2018-03-26T02:22:21.672Z,5.30
2018-03-26T02:24:49.894Z,5.00
2018-03-26T02:27:18.088Z,5.00
2018-03-26T02:29:46.483Z,4.90
2018-03-26T02:32:14.708Z,5.00
2018-03-26T02:34:42.893Z,4.70
2018-03-26T02:37:11.085Z,4.20
2018-03-26T02:45:09.688Z,3.50
2018-03-26T02:47:37.884Z,3.70
2018-03-26T02:50:06.101Z,4.30
2018-03-26T02:52:35.052Z,4.60
2018-03-26T02:55:03.232Z,4.60
2018-03-26T02:57:31.450Z,4.70
2018-03-26T03:00:00.412Z,3.90
2018-03-26T03:02:28.610Z,3.80
2018-03-26T03:04:57.602Z,4.90
2018-03-26T03:07:26.552Z,5.10
2018-03-26T03:09:54.737Z,5.10
2018-03-26T03:12:23.484Z,5.30
2018-03-26T03:14:51.671Z,5.10
2018-03-26T03:17:19.875Z,4.80
2018-03-26T03:19:48.102Z,4.80
2018-03-26T03:22:23.621Z,5.00
2018-03-26T03:24:52.592Z,5.20
2018-03-26T03:27:20.782Z,5.20
2018-03-26T03:29:49.944Z,5.20
2018-03-26T03:32:18.154Z,5.10
2018-03-26T03:34:47.180Z,5.40
2018-03-26T03:37:15.373Z,5.30
2018-03-26T03:39:43.597Z,5.10
2018-03-26T03:42:12.548Z,5.60
2018-03-26T03:44:40.735Z,5.60
2018-03-26T03:47:09.029Z,5.50
2018-03-26T03:49:38.037Z,5.30
2018-03-26T03:52:06.980Z,5.40
2018-03-26T03:58:06.403Z,5.60
2018-03-26T04:00:34.621Z,5.50
2018-03-26T04:03:03.568Z,5.20
2018-03-26T04:05:31.746Z,5.30
2018-03-26T04:07:59.956Z,5.70
2018-03-26T04:10:28.899Z,5.60
2018-03-26T04:12:57.084Z,5.50
2018-03-26T04:15:25.313Z,5.60
2018-03-26T04:18:23.251Z,5.50
2018-03-26T04:20:51.482Z,5.30
2018-03-26T04:23:19.675Z,5.50
2018-03-26T04:25:47.874Z,5.70
2018-03-26T04:28:16.084Z,5.70
2018-03-26T04:30:44.632Z,5.70
2018-03-26T04:33:13.585Z,5.60
2018-03-26T04:35:41.816Z,5.60
2018-03-26T04:38:10.764Z,5.60
2018-03-26T04:40:38.957Z,5.60
2018-03-26T04:43:07.935Z,5.60
2018-03-26T04:48:39.554Z,5.70
2018-03-26T04:51:07.738Z,5.00
2018-03-26T04:53:35.957Z,5.00
2018-03-26T04:56:04.150Z,5.20
2018-03-26T04:58:33.091Z,5.30
2018-03-26T05:01:01.315Z,5.30
2018-03-26T05:06:17.247Z,5.20
2018-03-26T05:08:45.444Z,5.30
2018-03-26T05:11:13.635Z,5.20
2018-03-26T05:16:42.001Z,5.50
2018-03-26T05:19:10.186Z,5.50
2018-03-26T05:21:38.372Z,5.50
2018-03-26T05:24:06.771Z,5.30
2018-03-26T05:26:34.948Z,5.50
2018-03-26T05:29:03.137Z,5.40
2018-03-26T05:31:32.246Z,5.50
2018-03-26T05:34:00.428Z,5.50
2018-03-26T05:36:28.613Z,5.70
2018-03-26T05:38:56.827Z,5.20
2018-03-26T05:41:25.099Z,5.30
2018-03-26T05:43:53.280Z,5.00
2018-03-26T05:46:25.080Z,5.40
2018-03-26T05:48:53.252Z,5.80
2018-03-26T05:51:21.448Z,5.70
2018-03-26T05:53:49.668Z,5.80
2018-03-26T05:56:17.844Z,5.70
2018-03-26T05:58:46.033Z,5.90
2018-03-26T06:01:15.016Z,6.00
2018-03-26T06:03:43.955Z,6.00
2018-03-26T06:06:12.138Z,6.00
2018-03-26T06:08:40.339Z,6.00
2018-03-26T06:11:08.516Z,6.00
2018-03-26T06:13:36.688Z,6.00
2018-03-26T06:16:04.905Z,6.00
2018-03-26T06:21:34.213Z,6.20
2018-03-26T06:30:23.875Z,5.60
2018-03-26T07:00:47.994Z,4.90
2018-03-26T07:03:23.285Z,5.00
2018-03-26T07:08:51.291Z,4.70
2018-03-26T07:11:20.234Z,5.60
2018-03-26T07:13:48.416Z,5.50
2018-03-26T07:16:16.637Z,5.60
2018-03-26T07:21:45.963Z,5.70
2018-03-26T07:24:14.144Z,5.30
2018-03-26T07:26:42.317Z,5.30
2018-03-26T07:29:10.541Z,5.10
2018-03-26T07:31:38.721Z,5.30
2018-03-26T07:34:06.996Z,5.40
2018-03-26T07:36:35.221Z,5.80
2018-03-26T07:39:03.416Z,5.70
2018-03-26T07:41:31.604Z,5.90
2018-03-26T07:43:59.820Z,5.90
2018-03-26T07:46:28.767Z,6.00
2018-03-26T07:48:56.998Z,6.00
2018-03-26T07:51:25.231Z,6.10
2018-03-26T07:53:53.398Z,6.00
2018-03-26T07:56:21.585Z,5.90
2018-03-26T07:58:49.818Z,5.90
2018-03-26T08:01:24.318Z,5.30
2018-03-26T08:03:52.535Z,5.60
2018-03-26T08:06:20.725Z,5.60
2018-03-26T08:08:48.917Z,5.50
2018-03-26T08:11:18.024Z,5.80
2018-03-26T08:13:46.973Z,5.80
2018-03-26T08:16:15.161Z,5.80
2018-03-26T08:18:43.381Z,6.30
2018-03-26T08:21:11.565Z,5.90
2018-03-26T08:23:39.737Z,5.60
2018-03-26T08:26:07.961Z,5.90
2018-03-26T08:31:36.601Z,6.30
2018-03-26T08:34:04.827Z,6.50
2018-03-26T08:36:33.041Z,6.50
2018-03-26T08:39:01.259Z,6.20
2018-03-26T08:41:29.444Z,6.20
2018-03-26T08:43:57.638Z,6.50
2018-03-26T08:46:26.618Z,6.10
2018-03-26T08:48:54.814Z,6.10
2018-03-26T08:51:23.769Z,6.40
2018-03-26T08:53:51.988Z,6.40
2018-03-26T08:56:26.636Z,6.80
2018-03-26T08:58:54.853Z,6.90
2018-03-26T09:07:25.135Z,6.70
2018-03-26T09:09:54.083Z,6.70
2018-03-26T09:12:22.272Z,6.60
2018-03-26T09:14:50.499Z,6.60
2018-03-26T09:17:25.204Z,6.60
2018-03-26T09:22:55.111Z,6.80
2018-03-26T09:28:24.177Z,6.70
2018-03-26T09:34:23.495Z,6.80
2018-03-26T09:46:22.508Z,7.10
2018-03-26T09:48:51.464Z,6.90
2018-03-26T09:54:25.957Z,7.00
2018-03-26T09:56:54.895Z,7.10
2018-03-26T09:59:23.486Z,7.10
2018-03-26T10:04:52.249Z,7.00
2018-03-26T10:19:23.929Z,7.10
2018-03-26T10:24:52.713Z,7.20
2018-03-26T10:27:24.193Z,7.20
2018-03-26T10:33:23.907Z,7.20
2018-03-26T10:38:52.875Z,7.30
2018-03-26T10:50:25.072Z,7.60
2018-03-26T10:55:54.124Z,7.60
2018-03-26T11:01:23.535Z,7.70
2018-03-26T11:07:22.070Z,7.40
2018-03-26T11:19:19.216Z,7.50
2018-03-26T11:43:23.607Z,7.20
2018-03-26T11:46:22.400Z,7.20
2018-03-26T11:49:19.051Z,7.40
2018-03-26T12:00:48.218Z,7.50
2018-03-26T12:03:23.472Z,7.60
2018-03-26T12:09:22.175Z,7.60
2018-03-26T12:18:22.096Z,7.70
2018-03-26T12:27:22.364Z,7.80
2018-03-26T12:48:14.045Z,7.50
2018-03-26T12:51:01.826Z,7.50
2018-03-26T12:53:30.183Z,7.50
2018-03-26T12:56:20.021Z,7.50
2018-03-26T12:59:01.595Z,7.50
2018-03-26T13:29:10.009Z,8.10
2018-03-26T13:31:38.193Z,8.10
2018-03-26T13:52:06.491Z,8.30
2018-03-26T13:54:43.446Z,8.50
2018-03-26T14:03:25.321Z,8.40
2018-03-26T14:06:11.018Z,8.50
2018-03-26T14:11:58.161Z,8.60
2018-03-26T14:14:44.324Z,8.60
2018-03-26T14:17:31.369Z,8.70
2018-03-26T14:19:59.558Z,8.70
2018-03-26T14:22:27.744Z,8.60
2018-03-26T14:24:55.968Z,8.50
2018-03-26T14:27:24.935Z,8.50
2018-03-26T14:29:53.147Z,8.50
2018-03-26T14:48:50.322Z,8.60
2018-03-26T14:51:24.667Z,8.60
2018-03-26T14:53:52.882Z,8.70
2018-03-26T14:56:21.836Z,8.70
2018-03-26T14:58:50.032Z,8.70
2018-03-26T15:04:20.483Z,8.40
2018-03-26T15:06:48.671Z,8.30
2018-03-26T15:09:18.020Z,8.40
2018-03-26T15:11:46.286Z,8.40
2018-03-26T15:14:14.481Z,8.40
2018-03-26T15:16:42.664Z,8.40
2018-03-26T15:19:10.898Z,8.40
2018-03-26T15:21:39.076Z,8.30
2018-03-26T15:24:07.271Z,8.30
2018-03-26T15:26:35.515Z,8.40
2018-03-26T15:29:23.080Z,8.30
2018-03-26T15:31:51.311Z,8.30
2018-03-26T15:37:19.354Z,8.40
2018-03-26T15:39:47.532Z,8.30
2018-03-26T15:45:24.374Z,8.30
2018-03-26T15:47:53.301Z,8.30
2018-03-26T15:50:21.593Z,8.20
2018-03-26T15:52:49.827Z,8.30
2018-03-26T15:55:18.002Z,8.20
2018-03-26T15:57:46.182Z,8.20
2018-03-26T16:00:14.399Z,8.10
2018-03-26T16:02:48.297Z,8.10
2018-03-26T16:05:16.554Z,8.20
2018-03-26T16:07:44.735Z,8.20
2018-03-26T16:16:24.898Z,8.10
2018-03-26T16:18:53.897Z,8.10
2018-03-26T16:21:22.090Z,8.00
2018-03-26T16:23:50.311Z,8.10
2018-03-26T16:26:24.864Z,8.10
2018-03-26T16:28:53.089Z,7.90
2018-03-26T16:31:22.109Z,7.70
2018-03-26T16:33:50.293Z,7.70
2018-03-26T16:36:18.529Z,7.80
2018-03-26T16:41:48.773Z,7.60
2018-03-26T16:47:19.106Z,7.60
2018-03-26T16:49:47.285Z,7.60
2018-03-26T16:52:24.505Z,7.60
2018-03-26T16:54:52.706Z,7.60
2018-03-26T16:57:20.899Z,7.60
2018-03-26T16:59:49.120Z,7.60
2018-03-26T17:02:17.296Z,7.50
2018-03-26T17:04:45.484Z,7.50
2018-03-26T17:07:14.050Z,7.60
2018-03-26T17:09:42.255Z,7.60
2018-03-26T17:12:23.687Z,7.50
2018-03-26T17:17:53.400Z,7.50
2018-03-26T17:20:25.723Z,7.40
2018-03-26T17:22:53.958Z,7.40
2018-03-26T17:25:22.899Z,7.40
2018-03-26T17:27:51.094Z,7.40
2018-03-26T17:30:19.316Z,7.40
2018-03-26T17:35:48.042Z,7.40
2018-03-26T17:41:16.752Z,7.40
2018-03-26T17:43:44.941Z,7.40
2018-03-26T17:46:27.381Z,7.30
2018-03-26T17:51:57.622Z,7.30
2018-03-26T17:54:26.571Z,7.30
2018-03-26T17:57:23.102Z,7.30
2018-03-26T17:59:51.299Z,7.20
2018-03-26T18:05:26.492Z,7.20
2018-03-26T18:10:29.791Z,7.20
2018-03-26T18:12:58.752Z,7.10
2018-03-26T18:15:26.936Z,7.10
2018-03-26T18:17:55.155Z,7.10
2018-03-26T18:20:23.340Z,7.10
2018-03-26T18:25:52.291Z,7.00
2018-03-26T18:28:20.490Z,7.00
2018-03-26T18:30:49.455Z,6.90
2018-03-26T18:33:17.667Z,6.90
2018-03-26T18:35:46.622Z,6.90
2018-03-26T18:38:14.808Z,6.90
2018-03-26T18:40:43.033Z,6.90
2018-03-26T18:43:11.232Z,6.70
2018-03-26T18:45:39.429Z,6.80
2018-03-26T18:48:07.659Z,6.80
2018-03-26T18:50:35.862Z,6.80
2018-03-26T18:53:04.043Z,6.80
2018-03-26T18:55:33.774Z,6.70
2018-03-26T18:58:23.592Z,6.80
2018-03-26T19:00:51.832Z,6.80
2018-03-26T19:06:21.011Z,6.70
2018-03-26T19:08:49.307Z,6.60
2018-03-26T19:13:51.004Z,6.60
2018-03-26T19:16:19.196Z,6.60
2018-03-26T19:18:47.380Z,6.50
2018-03-26T19:21:15.607Z,6.50
2018-03-26T19:23:44.624Z,6.40
2018-03-26T19:26:14.523Z,6.40
2018-03-26T19:28:42.796Z,6.40
2018-03-26T19:31:11.758Z,6.50
2018-03-26T19:33:39.959Z,6.50
2018-03-26T19:36:08.972Z,6.40
2018-03-26T19:38:37.157Z,6.40
2018-03-26T19:41:05.348Z,6.40
2018-03-26T19:43:36.356Z,6.50
2018-03-26T19:46:04.540Z,6.40
2018-03-26T19:48:32.753Z,6.40
2018-03-26T19:54:01.901Z,6.30
2018-03-26T19:56:30.876Z,6.40
2018-03-26T19:58:59.062Z,6.40
2018-03-26T20:01:28.064Z,6.30
2018-03-26T20:07:24.496Z,6.20
2018-03-26T20:09:52.877Z,6.20
2018-03-26T20:12:21.068Z,6.20
2018-03-26T20:23:52.669Z,6.20
2018-03-26T20:26:21.614Z,6.20
2018-03-26T20:28:49.863Z,6.20
2018-03-26T20:31:18.140Z,6.20
2018-03-26T20:33:46.326Z,6.10
2018-03-26T20:36:14.536Z,6.10
2018-03-26T20:38:42.756Z,6.20
2018-03-26T20:41:10.959Z,6.20
2018-03-26T20:43:39.203Z,6.10
2018-03-26T20:46:07.401Z,6.10
2018-03-26T20:48:35.664Z,6.10
2018-03-26T20:54:04.439Z,6.00
2018-03-26T20:56:33.386Z,6.00
2018-03-26T20:59:01.575Z,6.00
2018-03-26T21:01:29.795Z,6.00
2018-03-26T21:03:58.002Z,6.10
2018-03-26T21:06:26.248Z,6.10
2018-03-26T21:08:54.451Z,6.10
2018-03-26T21:11:22.654Z,6.10
2018-03-26T21:13:50.881Z,6.10
2018-03-26T21:19:26.228Z,5.90
2018-03-26T21:21:54.448Z,6.00
2018-03-26T21:24:25.901Z,6.00
2018-03-26T21:26:54.083Z,5.80
2018-03-26T21:29:22.329Z,5.80
2018-03-26T21:37:52.954Z,5.70
2018-03-26T21:40:21.935Z,5.70
2018-03-26T21:42:50.926Z,5.80
2018-03-26T21:45:19.916Z,5.60
2018-03-26T21:47:48.110Z,5.60
2018-03-26T21:50:16.309Z,5.80
2018-03-26T21:52:44.560Z,5.70
2018-03-26T21:55:12.749Z,5.60
2018-03-26T22:00:25.471Z,5.60
2018-03-26T22:02:53.655Z,5.60
2018-03-26T22:05:21.945Z,5.60
2018-03-26T22:07:50.142Z,5.70
2018-03-26T22:10:18.344Z,5.90
2018-03-26T22:12:47.348Z,5.50
2018-03-26T22:15:16.330Z,5.60
2018-03-26T22:17:45.353Z,5.40
2018-03-26T22:20:13.543Z,5.40
2018-03-26T22:22:41.737Z,5.40
2018-03-26T22:25:09.971Z,5.40
2018-03-26T22:27:38.229Z,5.40
2018-03-26T22:30:07.193Z,5.30
2018-03-26T22:32:35.389Z,5.30
2018-03-26T22:35:04.408Z,5.40
2018-03-26T22:37:32.596Z,5.30
2018-03-26T22:40:24.679Z,5.50
2018-03-26T22:42:52.878Z,5.60
2018-03-26T22:45:21.058Z,5.50
2018-03-26T22:47:49.277Z,5.20
2018-03-26T22:50:17.460Z,5.30
2018-03-26T22:52:45.705Z,5.20
2018-03-26T22:55:13.915Z,5.20
2018-03-26T22:57:42.130Z,5.10
2018-03-26T23:00:10.343Z,5.00
2018-03-26T23:02:38.532Z,5.00
2018-03-26T23:05:06.778Z,5.00
2018-03-26T23:07:34.968Z,5.00
2018-03-26T23:10:03.196Z,4.90
2018-03-26T23:12:31.371Z,4.80
2018-03-26T23:15:23.123Z,4.80
2018-03-26T23:17:51.315Z,4.80
2018-03-26T23:20:19.524Z,4.80
2018-03-26T23:22:48.502Z,4.70
2018-03-26T23:25:16.733Z,4.70
2018-03-26T23:27:44.935Z,4.70
2018-03-26T23:30:13.125Z,4.70
2018-03-26T23:32:41.336Z,4.80
2018-03-26T23:38:11.112Z,4.60
2018-03-26T23:40:39.313Z,4.60
2018-03-26T23:45:41.702Z,4.60
2018-03-26T23:48:09.905Z,4.50
2018-03-26T23:50:38.130Z,4.50
2018-03-26T23:53:06.324Z,4.50
2018-03-26T23:55:35.345Z,4.40
2018-03-26T23:58:23.775Z,4.40
